sensor_id;sensor_type;location;lat;lon;timestamp;pressure;altitude;pressure_sealevel;temperature;humidity
70968;BME280;58629;48.808;8.820;2023-04-04T00:01:44;97898.78;;;-0.22;67.91
70968;BME280;58629;48.808;8.820;2023-04-04T00:04:09;97894.53;;;-0.26;68.51
70968;BME280;58629;48.808;8.820;2023-04-04T00:06:35;97894.66;;;-0.23;68.50
70968;BME280;58629;48.808;8.820;2023-04-04T00:09:00;97892.56;;;-0.29;68.63
70968;BME280;58629;48.808;8.820;2023-04-04T00:11:25;97890.59;;;-0.32;68.90
70968;BME280;58629;48.808;8.820;2023-04-04T00:13:51;97885.28;;;-0.36;69.17
70968;BME280;58629;48.808;8.820;2023-04-04T00:16:17;97885.72;;;-0.34;69.71
70968;BME280;58629;48.808;8.820;2023-04-04T00:18:42;97886.00;;;-0.35;69.66
70968;BME280;58629;48.808;8.820;2023-04-04T00:21:07;97887.72;;;-0.39;70.12
70968;BME280;58629;48.808;8.820;2023-04-04T00:23:33;97882.38;;;-0.43;71.08
70968;BME280;58629;48.808;8.820;2023-04-04T00:25:58;97881.94;;;-0.45;69.90
70968;BME280;58629;48.808;8.820;2023-04-04T00:28:23;97878.44;;;-0.49;70.26
70968;BME280;58629;48.808;8.820;2023-04-04T00:30:49;97881.81;;;-0.48;70.26
70968;BME280;58629;48.808;8.820;2023-04-04T00:33:14;97875.28;;;-0.54;70.05
70968;BME280;58629;48.808;8.820;2023-04-04T00:35:40;97879.84;;;-0.51;70.46
70968;BME280;58629;48.808;8.820;2023-04-04T00:38:05;97875.28;;;-0.54;70.82
70968;BME280;58629;48.808;8.820;2023-04-04T00:40:32;97873.00;;;-0.56;70.85
70968;BME280;58629;48.808;8.820;2023-04-04T00:42:58;97870.69;;;-0.57;71.40
70968;BME280;58629;48.808;8.820;2023-04-04T00:45:25;97869.66;;;-0.65;70.71
70968;BME280;58629;48.808;8.820;2023-04-04T00:47:52;97862.63;;;-0.64;70.83
70968;BME280;58629;48.808;8.820;2023-04-04T00:50:19;97866.31;;;-0.65;70.95
70968;BME280;58629;48.808;8.820;2023-04-04T00:52:44;97876.28;;;-0.67;71.01
70968;BME280;58629;48.808;8.820;2023-04-04T00:55:09;97865.88;;;-0.67;70.78
70968;BME280;58629;48.808;8.820;2023-04-04T00:57:35;97865.44;;;-0.69;71.30
70968;BME280;58629;48.808;8.820;2023-04-04T01:00:02;97865.72;;;-0.71;70.58
70968;BME280;58629;48.808;8.820;2023-04-04T01:02:29;97864.81;;;-0.75;71.12
70968;BME280;58629;48.808;8.820;2023-04-04T01:04:54;97866.69;;;-0.75;70.94
70968;BME280;58629;48.808;8.820;2023-04-04T01:07:20;97862.88;;;-0.78;70.40
70968;BME280;58629;48.808;8.820;2023-04-04T01:09:45;97859.50;;;-0.78;71.02
70968;BME280;58629;48.808;8.820;2023-04-04T01:12:11;97862.09;;;-0.78;71.46
70968;BME280;58629;48.808;8.820;2023-04-04T01:14:36;97859.38;;;-0.82;71.10
70968;BME280;58629;48.808;8.820;2023-04-04T01:17:02;97856.44;;;-0.80;71.56
70968;BME280;58629;48.808;8.820;2023-04-04T01:19:32;97846.06;;;-0.80;70.71
70968;BME280;58629;48.808;8.820;2023-04-04T01:21:58;97852.63;;;-0.83;70.88
70968;BME280;58629;48.808;8.820;2023-04-04T01:24:27;97842.44;;;-0.88;70.92
70968;BME280;58629;48.808;8.820;2023-04-04T01:26:56;97847.94;;;-0.90;70.32
70968;BME280;58629;48.808;8.820;2023-04-04T01:29:22;97845.78;;;-0.88;70.95
70968;BME280;58629;48.808;8.820;2023-04-04T01:31:52;97847.78;;;-0.93;70.85
70968;BME280;58629;48.808;8.820;2023-04-04T01:34:43;97846.72;;;-0.92;69.99
70968;BME280;58629;48.808;8.820;2023-04-04T01:37:20;97849.31;;;-0.92;70.46
70968;BME280;58629;48.808;8.820;2023-04-04T01:39:48;97845.50;;;-0.95;70.61
70968;BME280;58629;48.808;8.820;2023-04-04T01:42:17;97842.47;;;-0.97;70.41
70968;BME280;58629;48.808;8.820;2023-04-04T01:44:44;97840.06;;;-1.02;70.19
70968;BME280;58629;48.808;8.820;2023-04-04T01:47:11;97838.97;;;-1.01;70.41
70968;BME280;58629;48.808;8.820;2023-04-04T01:49:37;97836.69;;;-1.02;71.28
70968;BME280;58629;48.808;8.820;2023-04-04T01:52:02;97826.47;;;-1.07;71.22
70968;BME280;58629;48.808;8.820;2023-04-04T01:54:28;97830.91;;;-1.08;71.95
70968;BME280;58629;48.808;8.820;2023-04-04T01:56:53;97828.75;;;-1.06;72.35
70968;BME280;58629;48.808;8.820;2023-04-04T01:59:19;97833.31;;;-1.03;71.92
70968;BME280;58629;48.808;8.820;2023-04-04T02:01:44;97827.97;;;-1.06;71.67
70968;BME280;58629;48.808;8.820;2023-04-04T02:04:09;97830.78;;;-1.11;71.76
70968;BME280;58629;48.808;8.820;2023-04-04T02:06:39;97836.59;;;-1.14;71.17
70968;BME280;58629;48.808;8.820;2023-04-04T02:09:04;97837.22;;;-1.17;72.13
70968;BME280;58629;48.808;8.820;2023-04-04T02:11:30;97831.25;;;-1.18;72.21
70968;BME280;58629;48.808;8.820;2023-04-04T02:13:55;97833.84;;;-1.18;72.90
70968;BME280;58629;48.808;8.820;2023-04-04T02:16:21;97842.25;;;-1.21;73.29
70968;BME280;58629;48.808;8.820;2023-04-04T02:18:46;97843.94;;;-1.25;72.34
70968;BME280;58629;48.808;8.820;2023-04-04T02:21:11;97849.91;;;-1.24;72.61
70968;BME280;58629;48.808;8.820;2023-04-04T02:23:37;97845.38;;;-1.27;73.18
70968;BME280;58629;48.808;8.820;2023-04-04T02:26:03;97848.28;;;-1.29;72.74
70968;BME280;58629;48.808;8.820;2023-04-04T02:28:28;97843.38;;;-1.30;72.87
70968;BME280;58629;48.808;8.820;2023-04-04T02:30:54;97841.66;;;-1.26;72.91
70968;BME280;58629;48.808;8.820;2023-04-04T02:33:19;97841.50;;;-1.21;72.82
70968;BME280;58629;48.808;8.820;2023-04-04T02:35:45;97835.28;;;-1.29;72.40
70968;BME280;58629;48.808;8.820;2023-04-04T02:38:10;97837.88;;;-1.29;73.30
70968;BME280;58629;48.808;8.820;2023-04-04T02:40:36;97840.78;;;-1.30;72.75
70968;BME280;58629;48.808;8.820;2023-04-04T02:43:03;97835.56;;;-1.30;72.83
70968;BME280;58629;48.808;8.820;2023-04-04T02:45:28;97838.50;;;-1.32;73.08
70968;BME280;58629;48.808;8.820;2023-04-04T02:47:54;97838.03;;;-1.34;73.30
70968;BME280;58629;48.808;8.820;2023-04-04T02:50:19;97830.25;;;-1.34;74.02
70968;BME280;58629;48.808;8.820;2023-04-04T02:52:44;97837.78;;;-1.41;73.70
70968;BME280;58629;48.808;8.820;2023-04-04T02:55:10;97833.19;;;-1.44;73.30
70968;BME280;58629;48.808;8.820;2023-04-04T02:57:35;97832.88;;;-1.42;74.23
70968;BME280;58629;48.808;8.820;2023-04-04T03:00:01;97830.91;;;-1.45;73.84
70968;BME280;58629;48.808;8.820;2023-04-04T03:02:28;97828.31;;;-1.45;73.67
70968;BME280;58629;48.808;8.820;2023-04-04T03:04:53;97829.53;;;-1.43;74.00
70968;BME280;58629;48.808;8.820;2023-04-04T03:07:19;97826.75;;;-1.46;74.08
70968;BME280;58629;48.808;8.820;2023-04-04T03:09:46;97824.03;;;-1.50;74.26
70968;BME280;58629;48.808;8.820;2023-04-04T03:12:11;97825.41;;;-1.52;73.71
70968;BME280;58629;48.808;8.820;2023-04-04T03:14:36;97822.69;;;-1.56;73.96
70968;BME280;58629;48.808;8.820;2023-04-04T03:17:02;97820.41;;;-1.57;73.73
70968;BME280;58629;48.808;8.820;2023-04-04T03:19:28;97824.81;;;-1.58;73.63
70968;BME280;58629;48.808;8.820;2023-04-04T03:21:53;97820.84;;;-1.55;74.35
70968;BME280;58629;48.808;8.820;2023-04-04T03:24:19;97823.00;;;-1.57;74.28
70968;BME280;58629;48.808;8.820;2023-04-04T03:26:44;97830.34;;;-1.59;73.83
70968;BME280;58629;48.808;8.820;2023-04-04T03:29:09;97821.44;;;-1.58;74.35
70968;BME280;58629;48.808;8.820;2023-04-04T03:31:35;97821.00;;;-1.60;74.10
70968;BME280;58629;48.808;8.820;2023-04-04T03:34:00;97820.56;;;-1.62;74.14
70968;BME280;58629;48.808;8.820;2023-04-04T03:36:26;97822.72;;;-1.64;74.36
70968;BME280;58629;48.808;8.820;2023-04-04T03:38:51;97821.19;;;-1.65;74.67
70968;BME280;58629;48.808;8.820;2023-04-04T03:41:17;97816.25;;;-1.58;74.77
70968;BME280;58629;48.808;8.820;2023-04-04T03:43:42;97811.25;;;-1.63;74.29
70968;BME280;58629;48.808;8.820;2023-04-04T03:46:09;97805.59;;;-1.65;74.56
70968;BME280;58629;48.808;8.820;2023-04-04T03:48:34;97807.44;;;-1.66;74.17
70968;BME280;58629;48.808;8.820;2023-04-04T03:51:01;97815.22;;;-1.66;75.06
70968;BME280;58629;48.808;8.820;2023-04-04T03:53:27;97816.91;;;-1.70;74.18
70968;BME280;58629;48.808;8.820;2023-04-04T03:55:54;97818.72;;;-1.62;74.89
70968;BME280;58629;48.808;8.820;2023-04-04T03:58:20;97814.28;;;-1.61;74.49
70968;BME280;58629;48.808;8.820;2023-04-04T04:00:47;97812.47;;;-1.61;74.23
70968;BME280;58629;48.808;8.820;2023-04-04T04:03:12;97818.72;;;-1.62;73.78
70968;BME280;58629;48.808;8.820;2023-04-04T04:05:37;97817.78;;;-1.57;73.76
70968;BME280;58629;48.808;8.820;2023-04-04T04:08:03;97818.13;;;-1.67;73.75
70968;BME280;58629;48.808;8.820;2023-04-04T04:10:28;97817.22;;;-1.71;74.00
70968;BME280;58629;48.808;8.820;2023-04-04T04:12:53;97820.75;;;-1.76;74.58
70968;BME280;58629;48.808;8.820;2023-04-04T04:15:18;97812.94;;;-1.76;74.71
70968;BME280;58629;48.808;8.820;2023-04-04T04:17:44;97805.94;;;-1.84;73.80
70968;BME280;58629;48.808;8.820;2023-04-04T04:20:10;97812.53;;;-1.87;74.21
70968;BME280;58629;48.808;8.820;2023-04-04T04:22:35;97810.22;;;-1.88;74.47
70968;BME280;58629;48.808;8.820;2023-04-04T04:25:02;97808.72;;;-1.89;74.84
70968;BME280;58629;48.808;8.820;2023-04-04T04:27:27;97816.31;;;-1.84;74.67
70968;BME280;58629;48.808;8.820;2023-04-04T04:29:54;97816.78;;;-1.82;75.59
70968;BME280;58629;48.808;8.820;2023-04-04T04:32:19;97818.91;;;-1.84;75.07
70968;BME280;58629;48.808;8.820;2023-04-04T04:34:45;97825.06;;;-1.89;74.37
70968;BME280;58629;48.808;8.820;2023-04-04T04:37:10;97820.31;;;-1.87;76.28
70968;BME280;58629;48.808;8.820;2023-04-04T04:39:36;97823.06;;;-1.92;74.87
70968;BME280;58629;48.808;8.820;2023-04-04T04:42:02;97823.53;;;-1.90;75.86
70968;BME280;58629;48.808;8.820;2023-04-04T04:44:27;97816.22;;;-1.96;76.30
70968;BME280;58629;48.808;8.820;2023-04-04T04:46:52;97821.88;;;-1.94;75.74
70968;BME280;58629;48.808;8.820;2023-04-04T04:49:18;97819.69;;;-1.92;76.43
70968;BME280;58629;48.808;8.820;2023-04-04T04:51:43;97820.31;;;-1.95;76.17
70968;BME280;58629;48.808;8.820;2023-04-04T04:54:08;97818.34;;;-1.98;77.88
70968;BME280;58629;48.808;8.820;2023-04-04T04:56:35;97813.94;;;-2.06;77.14
70968;BME280;58629;48.808;8.820;2023-04-04T04:59:00;97815.44;;;-2.14;76.93
70968;BME280;58629;48.808;8.820;2023-04-04T05:01:26;97818.22;;;-2.19;76.21
70968;BME280;58629;48.808;8.820;2023-04-04T05:03:51;97826.31;;;-2.20;77.06
70968;BME280;58629;48.808;8.820;2023-04-04T05:06:16;97826.00;;;-2.27;76.94
70968;BME280;58629;48.808;8.820;2023-04-04T05:08:41;97833.31;;;-2.29;77.28
70968;BME280;58629;48.808;8.820;2023-04-04T05:11:07;97830.13;;;-2.26;78.87
70968;BME280;58629;48.808;8.820;2023-04-04T05:13:32;97824.63;;;-2.25;78.18
70968;BME280;58629;48.808;8.820;2023-04-04T05:15:57;97830.28;;;-2.23;78.24
70968;BME280;58629;48.808;8.820;2023-04-04T05:18:23;97831.78;;;-2.22;78.68
70968;BME280;58629;48.808;8.820;2023-04-04T05:20:53;97832.25;;;-2.20;78.87
70968;BME280;58629;48.808;8.820;2023-04-04T05:23:18;97833.16;;;-2.16;78.86
70968;BME280;58629;48.808;8.820;2023-04-04T05:25:43;97830.13;;;-2.26;78.15
70968;BME280;58629;48.808;8.820;2023-04-04T05:28:09;97836.38;;;-2.27;78.58
70968;BME280;58629;48.808;8.820;2023-04-04T05:30:34;97843.56;;;-2.24;77.88
70968;BME280;58629;48.808;8.820;2023-04-04T05:32:59;97842.78;;;-2.25;78.53
70968;BME280;58629;48.808;8.820;2023-04-04T05:35:24;97842.63;;;-2.20;78.92
70968;BME280;58629;48.808;8.820;2023-04-04T05:37:50;97842.47;;;-2.23;79.46
70968;BME280;58629;48.808;8.820;2023-04-04T05:40:15;97841.41;;;-2.14;79.42
70968;BME280;58629;48.808;8.820;2023-04-04T05:42:40;97846.59;;;-2.14;79.43
70968;BME280;58629;48.808;8.820;2023-04-04T05:45:07;97846.75;;;-2.10;80.03
70968;BME280;58629;48.808;8.820;2023-04-04T05:47:32;97852.56;;;-2.05;81.07
70968;BME280;58629;48.808;8.820;2023-04-04T05:49:58;97848.59;;;-2.02;80.33
70968;BME280;58629;48.808;8.820;2023-04-04T05:52:23;97849.66;;;-1.95;80.73
70968;BME280;58629;48.808;8.820;2023-04-04T05:54:48;97846.88;;;-1.90;80.54
70968;BME280;58629;48.808;8.820;2023-04-04T05:57:15;97848.41;;;-1.89;79.42
70968;BME280;58629;48.808;8.820;2023-04-04T05:59:40;97847.19;;;-1.91;78.10
70968;BME280;58629;48.808;8.820;2023-04-04T06:02:05;97851.47;;;-1.87;78.62
70968;BME280;58629;48.808;8.820;2023-04-04T06:04:31;97854.34;;;-1.80;78.63
70968;BME280;58629;48.808;8.820;2023-04-04T06:06:57;97850.38;;;-1.68;78.61
70968;BME280;58629;48.808;8.820;2023-04-04T06:09:22;97850.66;;;-1.61;78.07
70968;BME280;58629;48.808;8.820;2023-04-04T06:11:47;97858.38;;;-1.44;78.39
70968;BME280;58629;48.808;8.820;2023-04-04T06:14:12;97853.50;;;-1.37;77.83
70968;BME280;58629;48.808;8.820;2023-04-04T06:16:38;97851.28;;;-1.27;77.72
70968;BME280;58629;48.808;8.820;2023-04-04T06:19:03;97851.88;;;-0.54;90.13
70968;BME280;58629;48.808;8.820;2023-04-04T06:21:28;97851.72;;;0.37;96.35
70968;BME280;58629;48.808;8.820;2023-04-04T06:23:54;97849.09;;;1.18;94.37
70968;BME280;58629;48.808;8.820;2023-04-04T06:26:19;97844.25;;;1.68;86.35
70968;BME280;58629;48.808;8.820;2023-04-04T06:28:48;97846.00;;;2.47;85.89
70968;BME280;58629;48.808;8.820;2023-04-04T06:31:14;97851.50;;;3.04;81.60
70968;BME280;58629;48.808;8.820;2023-04-04T06:33:39;97845.00;;;2.83;64.85
70968;BME280;58629;48.808;8.820;2023-04-04T06:36:05;97843.41;;;2.78;70.85
70968;BME280;58629;48.808;8.820;2023-04-04T06:38:30;97843.38;;;2.94;72.62
70968;BME280;58629;48.808;8.820;2023-04-04T06:40:55;97845.53;;;3.38;74.21
70968;BME280;58629;48.808;8.820;2023-04-04T06:43:22;97845.38;;;3.66;70.76
70968;BME280;58629;48.808;8.820;2023-04-04T06:45:48;97836.38;;;4.02;72.35
70968;BME280;58629;48.808;8.820;2023-04-04T06:48:13;97834.81;;;3.63;64.28
70968;BME280;58629;48.808;8.820;2023-04-04T06:50:38;97832.41;;;3.92;68.14
70968;BME280;58629;48.808;8.820;2023-04-04T06:53:04;97833.81;;;4.05;68.88
70968;BME280;58629;48.808;8.820;2023-04-04T06:55:34;97834.06;;;3.62;59.73
70968;BME280;58629;48.808;8.820;2023-04-04T06:57:59;97835.63;;;3.47;62.90
70968;BME280;58629;48.808;8.820;2023-04-04T07:00:25;97818.34;;;3.81;67.27
70968;BME280;58629;48.808;8.820;2023-04-04T07:02:57;97824.81;;;4.06;67.94
70968;BME280;58629;48.808;8.820;2023-04-04T07:05:23;97828.91;;;3.66;57.42
70968;BME280;58629;48.808;8.820;2023-04-04T07:07:51;97832.44;;;2.88;56.80
70968;BME280;58629;48.808;8.820;2023-04-04T07:10:18;97836.13;;;3.18;62.31
70968;BME280;58629;48.808;8.820;2023-04-04T07:12:44;97843.47;;;3.13;56.00
70968;BME280;58629;48.808;8.820;2023-04-04T07:15:09;97838.66;;;3.15;55.99
70968;BME280;58629;48.808;8.820;2023-04-04T07:17:38;97837.59;;;3.35;58.85
70968;BME280;58629;48.808;8.820;2023-04-04T07:20:06;97837.19;;;3.17;55.03
70968;BME280;58629;48.808;8.820;2023-04-04T07:22:31;97832.69;;;3.68;61.79
70968;BME280;58629;48.808;8.820;2023-04-04T07:24:56;97840.22;;;3.70;58.42
70968;BME280;58629;48.808;8.820;2023-04-04T07:27:22;97838.63;;;3.84;57.11
70968;BME280;58629;48.808;8.820;2023-04-04T07:29:47;97841.09;;;3.77;54.37
70968;BME280;58629;48.808;8.820;2023-04-04T07:32:12;97835.06;;;3.38;54.48
70968;BME280;58629;48.808;8.820;2023-04-04T07:34:38;97837.69;;;3.23;54.27
70968;BME280;58629;48.808;8.820;2023-04-04T07:37:03;97834.19;;;2.84;54.51
70968;BME280;58629;48.808;8.820;2023-04-04T07:39:28;97832.94;;;2.62;54.83
70968;BME280;58629;48.808;8.820;2023-04-04T07:41:54;97839.56;;;2.44;54.93
70968;BME280;58629;48.808;8.820;2023-04-04T07:44:19;97838.66;;;2.52;55.84
70968;BME280;58629;48.808;8.820;2023-04-04T07:46:44;97840.19;;;2.85;55.84
70968;BME280;58629;48.808;8.820;2023-04-04T07:49:10;97837.59;;;2.69;55.83
70968;BME280;58629;48.808;8.820;2023-04-04T07:51:36;97844.22;;;2.51;55.68
70968;BME280;58629;48.808;8.820;2023-04-04T07:54:02;97837.31;;;2.58;55.44
70968;BME280;58629;48.808;8.820;2023-04-04T07:56:28;97840.69;;;2.75;55.60
70968;BME280;58629;48.808;8.820;2023-04-04T07:58:53;97843.88;;;2.99;56.22
70968;BME280;58629;48.808;8.820;2023-04-04T08:01:18;97842.72;;;3.12;56.08
70968;BME280;58629;48.808;8.820;2023-04-04T08:03:44;97831.31;;;3.20;55.96
70968;BME280;58629;48.808;8.820;2023-04-04T08:06:09;97838.16;;;3.44;56.78
70968;BME280;58629;48.808;8.820;2023-04-04T08:08:35;97834.44;;;3.45;55.08
70968;BME280;58629;48.808;8.820;2023-04-04T08:11:00;97838.25;;;3.67;56.17
70968;BME280;58629;48.808;8.820;2023-04-04T08:13:25;97838.41;;;3.74;54.61
70968;BME280;58629;48.808;8.820;2023-04-04T08:15:51;97835.09;;;3.77;53.76
70968;BME280;58629;48.808;8.820;2023-04-04T08:18:16;97831.25;;;3.90;53.83
70968;BME280;58629;48.808;8.820;2023-04-04T08:20:42;97840.22;;;4.08;53.58
70968;BME280;58629;48.808;8.820;2023-04-04T08:23:07;97831.94;;;4.06;53.45
70968;BME280;58629;48.808;8.820;2023-04-04T08:25:33;97825.06;;;4.39;52.56
70968;BME280;58629;48.808;8.820;2023-04-04T08:27:59;97827.75;;;4.43;52.39
70968;BME280;58629;48.808;8.820;2023-04-04T08:30:24;97827.44;;;4.48;51.97
70968;BME280;58629;48.808;8.820;2023-04-04T08:32:50;97822.72;;;4.34;50.91
70968;BME280;58629;48.808;8.820;2023-04-04T08:35:15;97827.59;;;4.36;50.41
70968;BME280;58629;48.808;8.820;2023-04-04T08:37:44;97822.41;;;4.17;50.72
70968;BME280;58629;48.808;8.820;2023-04-04T08:40:10;97827.19;;;4.34;51.61
70968;BME280;58629;48.808;8.820;2023-04-04T08:42:39;97829.09;;;4.33;51.95
70968;BME280;58629;48.808;8.820;2023-04-04T08:45:06;97830.78;;;4.68;51.06
70968;BME280;58629;48.808;8.820;2023-04-04T08:47:33;97832.50;;;4.79;52.26
70968;BME280;58629;48.808;8.820;2023-04-04T08:50:03;97828.09;;;4.42;49.47
70968;BME280;58629;48.808;8.820;2023-04-04T08:52:29;97834.81;;;4.39;50.63
70968;BME280;58629;48.808;8.820;2023-04-04T08:54:56;97836.78;;;4.68;49.88
70968;BME280;58629;48.808;8.820;2023-04-04T08:57:22;97834.97;;;4.95;51.75
70968;BME280;58629;48.808;8.820;2023-04-04T08:59:47;97844.06;;;4.78;48.87
70968;BME280;58629;48.808;8.820;2023-04-04T09:02:32;97841.72;;;5.18;50.69
70968;BME280;58629;48.808;8.820;2023-04-04T09:04:59;97836.75;;;5.40;49.24
70968;BME280;58629;48.808;8.820;2023-04-04T09:07:26;97835.88;;;5.58;47.75
70968;BME280;58629;48.808;8.820;2023-04-04T09:09:52;97839.72;;;5.64;46.68
70968;BME280;58629;48.808;8.820;2023-04-04T09:12:18;97829.56;;;5.63;47.34
70968;BME280;58629;48.808;8.820;2023-04-04T09:14:45;97832.78;;;5.82;47.95
70968;BME280;58629;48.808;8.820;2023-04-04T09:17:11;97834.69;;;5.82;45.38
70968;BME280;58629;48.808;8.820;2023-04-04T09:19:37;97837.56;;;5.99;46.47
70968;BME280;58629;48.808;8.820;2023-04-04T09:22:07;97836.00;;;5.95;45.67
70968;BME280;58629;48.808;8.820;2023-04-04T09:24:41;97833.03;;;6.33;47.17
70968;BME280;58629;48.808;8.820;2023-04-04T09:27:07;97824.16;;;6.48;44.34
70968;BME280;58629;48.808;8.820;2023-04-04T09:29:40;97833.34;;;6.68;46.04
70968;BME280;58629;48.808;8.820;2023-04-04T09:32:07;97828.97;;;6.83;44.20
70968;BME280;58629;48.808;8.820;2023-04-04T09:34:33;97828.31;;;6.93;43.08
70968;BME280;58629;48.808;8.820;2023-04-04T09:36:58;97824.13;;;6.88;43.97
70968;BME280;58629;48.808;8.820;2023-04-04T09:39:24;97826.91;;;7.06;45.29
70968;BME280;58629;48.808;8.820;2023-04-04T09:41:50;97829.81;;;6.94;44.30
70968;BME280;58629;48.808;8.820;2023-04-04T09:44:15;97826.47;;;7.00;42.05
70968;BME280;58629;48.808;8.820;2023-04-04T09:46:41;97826.69;;;6.81;44.43
70968;BME280;58629;48.808;8.820;2023-04-04T09:49:25;97825.63;;;6.89;43.58
70968;BME280;58629;48.808;8.820;2023-04-04T09:51:53;97827.19;;;6.94;44.81
70968;BME280;58629;48.808;8.820;2023-04-04T09:54:21;97828.81;;;7.13;43.13
70968;BME280;58629;48.808;8.820;2023-04-04T09:56:48;97821.41;;;6.78;42.94
70968;BME280;58629;48.808;8.820;2023-04-04T09:59:13;97819.13;;;7.27;43.94
70968;BME280;58629;48.808;8.820;2023-04-04T10:01:39;97831.28;;;7.42;44.49
70968;BME280;58629;48.808;8.820;2023-04-04T10:04:04;97822.38;;;7.68;43.35
70968;BME280;58629;48.808;8.820;2023-04-04T10:06:30;97832.47;;;7.52;43.46
70968;BME280;58629;48.808;8.820;2023-04-04T10:08:56;97834.66;;;7.43;44.34
70968;BME280;58629;48.808;8.820;2023-04-04T10:11:33;97823.09;;;7.03;42.30
70968;BME280;58629;48.808;8.820;2023-04-04T10:14:01;97831.78;;;6.60;43.27
70968;BME280;58629;48.808;8.820;2023-04-04T10:16:31;97821.53;;;6.92;43.85
70968;BME280;58629;48.808;8.820;2023-04-04T10:18:57;97821.41;;;6.78;42.35
70968;BME280;58629;48.808;8.820;2023-04-04T10:21:25;97820.00;;;6.44;42.70
70968;BME280;58629;48.808;8.820;2023-04-04T10:23:51;97825.78;;;6.23;43.26
70968;BME280;58629;48.808;8.820;2023-04-04T10:26:18;97820.97;;;6.32;42.48
70968;BME280;58629;48.808;8.820;2023-04-04T10:28:43;97816.22;;;6.45;41.99
70968;BME280;58629;48.808;8.820;2023-04-04T10:31:22;97817.47;;;6.58;43.16
70968;BME280;58629;48.808;8.820;2023-04-04T10:36:30;97821.13;;;6.90;44.06
70968;BME280;58629;48.808;8.820;2023-04-04T10:39:12;97811.34;;;6.90;44.28
70968;BME280;58629;48.808;8.820;2023-04-04T10:41:39;97809.03;;;7.40;43.90
70968;BME280;58629;48.808;8.820;2023-04-04T10:44:13;97813.00;;;7.77;43.41
70968;BME280;58629;48.808;8.820;2023-04-04T10:46:45;97812.94;;;7.67;42.34
70968;BME280;58629;48.808;8.820;2023-04-04T10:49:11;97816.97;;;7.47;41.68
70968;BME280;58629;48.808;8.820;2023-04-04T10:51:36;97808.03;;;7.65;42.52
70968;BME280;58629;48.808;8.820;2023-04-04T10:54:02;97816.03;;;7.86;42.73
70968;BME280;58629;48.808;8.820;2023-04-04T10:56:28;97809.59;;;7.80;42.23
70968;BME280;58629;48.808;8.820;2023-04-04T10:59:13;97808.16;;;7.90;42.26
70968;BME280;58629;48.808;8.820;2023-04-04T11:01:56;97802.28;;;8.32;38.21
70968;BME280;58629;48.808;8.820;2023-04-04T11:04:30;97809.44;;;8.42;40.16
70968;BME280;58629;48.808;8.820;2023-04-04T11:07:07;97809.81;;;8.30;40.94
70968;BME280;58629;48.808;8.820;2023-04-04T11:12:14;97802.50;;;7.92;39.83
70968;BME280;58629;48.808;8.820;2023-04-04T11:14:55;97800.00;;;8.30;39.96
70968;BME280;58629;48.808;8.820;2023-04-04T11:17:43;97798.50;;;8.36;39.46
70968;BME280;58629;48.808;8.820;2023-04-04T11:20:20;97794.59;;;7.92;39.89
70968;BME280;58629;48.808;8.820;2023-04-04T11:23:19;97796.25;;;8.35;40.99
70968;BME280;58629;48.808;8.820;2023-04-04T11:25:53;97798.13;;;8.27;40.56
70968;BME280;58629;48.808;8.820;2023-04-04T11:36:51;97785.34;;;8.64;40.42
70968;BME280;58629;48.808;8.820;2023-04-04T11:42:06;97789.84;;;8.82;39.71
70968;BME280;58629;48.808;8.820;2023-04-04T11:47:18;97790.22;;;9.08;38.04
70968;BME280;58629;48.808;8.820;2023-04-04T11:49:45;97788.28;;;9.19;38.29
70968;BME280;58629;48.808;8.820;2023-04-04T11:52:15;97781.94;;;8.85;38.15
70968;BME280;58629;48.808;8.820;2023-04-04T11:54:43;97782.28;;;9.19;39.97
70968;BME280;58629;48.808;8.820;2023-04-04T11:57:13;97776.97;;;9.26;36.31
70968;BME280;58629;48.808;8.820;2023-04-04T11:59:43;97769.72;;;9.47;38.44
70968;BME280;58629;48.808;8.820;2023-04-04T12:02:09;97770.75;;;9.75;38.19
70968;BME280;58629;48.808;8.820;2023-04-04T12:04:35;97774.06;;;9.93;39.29
70968;BME280;58629;48.808;8.820;2023-04-04T12:07:02;97771.91;;;9.67;38.29
70968;BME280;58629;48.808;8.820;2023-04-04T12:09:31;97772.75;;;9.56;39.33
70968;BME280;58629;48.808;8.820;2023-04-04T12:11:57;97752.50;;;10.01;38.73
70968;BME280;58629;48.808;8.820;2023-04-04T12:14:23;97764.47;;;10.27;38.88
70968;BME280;58629;48.808;8.820;2023-04-04T12:16:54;97773.72;;;9.87;36.31
70968;BME280;58629;48.808;8.820;2023-04-04T12:19:22;97780.94;;;9.80;37.17
70968;BME280;58629;48.808;8.820;2023-04-04T12:21:48;97777.59;;;9.65;37.25
70968;BME280;58629;48.808;8.820;2023-04-04T12:24:14;97771.56;;;9.68;37.27
70968;BME280;58629;48.808;8.820;2023-04-04T12:26:41;97767.00;;;9.69;37.79
70968;BME280;58629;48.808;8.820;2023-04-04T12:29:08;97765.09;;;9.80;37.23
70968;BME280;58629;48.808;8.820;2023-04-04T12:31:35;97773.28;;;10.03;38.20
70968;BME280;58629;48.808;8.820;2023-04-04T12:34:01;97757.44;;;9.96;36.66
70968;BME280;58629;48.808;8.820;2023-04-04T12:36:30;97749.34;;;10.27;36.80
70968;BME280;58629;48.808;8.820;2023-04-04T12:39:01;97751.47;;;10.46;35.98
70968;BME280;58629;48.808;8.820;2023-04-04T12:41:26;97760.25;;;10.36;37.00
70968;BME280;58629;48.808;8.820;2023-04-04T12:44:03;97756.63;;;10.06;36.08
70968;BME280;58629;48.808;8.820;2023-04-04T12:46:39;97743.34;;;10.20;34.36
70968;BME280;58629;48.808;8.820;2023-04-04T12:49:10;97745.16;;;10.33;36.18
70968;BME280;58629;48.808;8.820;2023-04-04T12:51:37;97745.19;;;10.30;36.49
70968;BME280;58629;48.808;8.820;2023-04-04T12:54:04;97744.94;;;10.62;36.94
70968;BME280;58629;48.808;8.820;2023-04-04T12:56:36;97734.03;;;10.53;35.50
70968;BME280;58629;48.808;8.820;2023-04-04T12:59:02;97734.44;;;10.51;36.70
70968;BME280;58629;48.808;8.820;2023-04-04T13:01:29;97736.13;;;10.75;36.55
70968;BME280;58629;48.808;8.820;2023-04-04T13:04:00;97734.50;;;10.85;36.23
70968;BME280;58629;48.808;8.820;2023-04-04T13:06:27;97738.97;;;10.51;34.33
70968;BME280;58629;48.808;8.820;2023-04-04T13:08:54;97727.84;;;10.66;35.96
70968;BME280;58629;48.808;8.820;2023-04-04T13:11:20;97727.13;;;10.62;35.34
70968;BME280;58629;48.808;8.820;2023-04-04T13:13:46;97734.00;;;11.00;35.12
70968;BME280;58629;48.808;8.820;2023-04-04T13:16:31;97729.53;;;10.90;33.13
70968;BME280;58629;48.808;8.820;2023-04-04T13:18:57;97722.88;;;10.72;35.19
70968;BME280;58629;48.808;8.820;2023-04-04T13:21:23;97721.44;;;11.04;32.01
70968;BME280;58629;48.808;8.820;2023-04-04T13:23:49;97720.38;;;10.58;35.06